Time;durP1;ratioP1;P1;durP2;ratioP2;P2;SDS_P1;SDS_P2;PMS_P1;PMS_P2;Temp;Humidity;BMP_temperature;BMP_pressure;BME280_temperature;BME280_humidity;BME280_pressure;Samples;Min_cycle;Max_cycle;Signal;HPM_P1;HPM_P2
2021/08/21 00:00:15;;;;;;;17.17;7.13;;;;;;;17.52;66.77;100594.25;126346;1098;104162;-78
2021/08/21 00:03:04;;;;;;;17.00;6.67;;;;;;;17.50;66.95;100598.66;126312;1099;104140;-77
2021/08/21 00:05:35;;;;;;;14.33;6.80;;;;;;;17.50;66.41;100603.06;126253;1098;105621;-78
2021/08/21 00:08:06;;;;;;;11.87;6.50;;;;;;;17.48;67.15;100592.44;126307;1099;104669;-78
2021/08/21 00:10:38;;;;;;;15.33;6.50;;;;;;;17.49;67.64;100593.34;126282;1099;104219;-78
2021/08/21 00:13:09;;;;;;;15.07;6.77;;;;;;;17.47;67.83;100598.64;126340;1099;104133;-78
2021/08/21 00:15:40;;;;;;;14.97;6.67;;;;;;;17.45;67.64;100599.48;126257;1098;104155;-77
2021/08/21 00:18:12;;;;;;;14.93;6.73;;;;;;;17.42;67.75;100595.03;126292;1099;104210;-78
2021/08/21 00:20:43;;;;;;;16.60;6.97;;;;;;;17.38;67.41;100595.90;126338;1099;104141;-78
2021/08/21 00:23:14;;;;;;;17.50;7.13;;;;;;;17.34;67.28;100594.99;126276;1099;104155;-79
2021/08/21 00:25:45;;;;;;;15.43;7.10;;;;;;;17.30;67.37;100597.59;126284;1099;105517;-78
2021/08/21 00:28:15;;;;;;;14.53;6.57;;;;;;;17.27;67.44;100603.75;126334;1099;104150;-77
2021/08/21 00:30:48;;;;;;;13.67;6.60;;;;;;;17.25;67.55;100606.39;126269;1099;104141;-77
2021/08/21 00:33:18;;;;;;;14.53;6.20;;;;;;;17.24;67.44;100599.30;126302;1099;104238;-78
2021/08/21 00:35:51;;;;;;;13.43;6.97;;;;;;;17.23;68.01;100597.54;126227;1099;104709;-78
2021/08/21 00:38:21;;;;;;;11.77;6.40;;;;;;;17.22;67.87;100594.88;126309;1098;104146;-77
2021/08/21 00:40:52;;;;;;;13.83;6.70;;;;;;;17.22;67.57;100594.88;126314;1099;104153;-77
2021/08/21 00:43:22;;;;;;;11.87;6.60;;;;;;;17.21;67.64;100601.91;126238;1099;104246;-77
2021/08/21 00:45:53;;;;;;;15.45;6.85;;;;;;;17.21;67.71;100593.95;126287;1099;104271;-78
2021/08/21 00:48:24;;;;;;;13.00;6.43;;;;;;;17.21;67.87;100599.27;126325;1099;104146;-78
2021/08/21 00:50:58;;;;;;;13.33;6.60;;;;;;;17.20;67.90;100592.20;126350;1099;104142;-79
2021/08/21 00:53:29;;;;;;;11.97;6.20;;;;;;;17.18;68.19;100593.92;126333;1099;104364;-78
2021/08/21 00:56:01;;;;;;;15.20;6.43;;;;;;;17.17;68.39;100599.22;126187;1099;104242;-78
2021/08/21 00:58:35;;;;;;;12.27;7.00;;;;;;;17.13;68.56;100595.66;126311;1099;104293;-78
2021/08/21 01:01:06;;;;;;;14.85;7.08;;;;;;;17.10;67.91;100592.97;126324;1099;104168;-78
2021/08/21 01:03:37;;;;;;;13.53;6.50;;;;;;;17.10;68.13;100589.44;126315;1099;104166;-77
2021/08/21 01:06:09;;;;;;;13.40;7.07;;;;;;;17.10;68.36;100592.09;126325;1099;104220;-77
2021/08/21 01:08:39;;;;;;;14.15;6.50;;;;;;;17.08;68.46;100592.08;126280;1099;104137;-78
2021/08/21 01:11:14;;;;;;;12.23;6.70;;;;;;;17.06;68.27;100588.50;126333;1099;104133;-78
2021/08/21 01:13:44;;;;;;;17.35;7.05;;;;;;;17.06;68.37;100588.50;126327;1099;104275;-77
2021/08/21 01:16:17;;;;;;;14.00;6.53;;;;;;;17.02;68.92;100584.94;126287;1099;104143;-78
2021/08/21 01:18:49;;;;;;;12.93;6.13;;;;;;;16.98;68.70;100587.53;126272;1099;118889;-78
2021/08/21 01:21:20;;;;;;;16.70;6.50;;;;;;;16.94;68.60;100577.76;126328;1099;104165;-78
2021/08/21 01:23:52;;;;;;;12.70;6.17;;;;;;;16.93;68.72;100582.19;126308;1099;104198;-79
2021/08/21 01:26:32;;;;;;;13.17;6.27;;;;;;;16.90;68.58;100574.20;126311;1099;104155;-77
2021/08/21 01:29:19;;;;;;;12.53;6.53;;;;;;;16.86;69.14;100570.63;126352;1099;104175;-77
2021/08/21 01:32:01;;;;;;;12.33;6.10;;;;;;;16.86;69.24;100581.23;126321;1099;104139;-79
2021/08/21 01:34:32;;;;;;;13.07;6.80;;;;;;;16.84;69.34;100576.74;126313;1099;104111;-79
2021/08/21 01:37:02;;;;;;;15.40;6.30;;;;;;;16.79;68.98;100579.34;126310;1099;104142;-77
2021/08/21 01:39:49;;;;;;;16.07;6.10;;;;;;;16.78;69.12;100572.28;126267;1099;112724;-78
2021/08/21 01:42:33;;;;;;;13.53;6.77;;;;;;;16.76;69.33;100581.95;126354;1099;104226;-79
2021/08/21 01:45:08;;;;;;;14.00;6.93;;;;;;;16.73;69.63;100579.27;126330;1099;104188;-79
2021/08/21 01:47:39;;;;;;;14.97;6.77;;;;;;;16.70;69.88;100579.23;126272;1099;104162;-77
2021/08/21 01:50:16;;;;;;;11.10;6.20;;;;;;;16.71;70.01;100581.02;126332;1098;104163;-77
2021/08/21 01:52:50;;;;;;;12.57;6.70;;;;;;;16.69;69.43;100578.35;126363;1097;104239;-79
2021/08/21 01:55:38;;;;;;;12.00;6.37;;;;;;;16.65;69.85;100576.53;126329;1099;104242;-78
2021/08/21 01:58:20;;;;;;;14.20;6.53;;;;;;;16.62;70.03;100583.56;126216;1097;104136;-80
2021/08/21 02:01:08;;;;;;;16.03;7.10;;;;;;;16.56;69.42;100580.83;126269;1099;104393;-78
2021/08/21 02:03:51;;;;;;;18.53;6.70;;;;;;;16.53;70.78;100582.58;126340;1099;104165;-77
2021/08/21 02:06:21;;;;;;;13.63;6.80;;;;;;;16.47;69.90;100579.85;126293;1099;104226;-78
2021/08/21 02:08:53;;;;;;;12.57;7.07;;;;;;;16.44;69.87;100582.46;126300;1099;104303;-79
2021/08/21 02:11:23;;;;;;;17.70;6.83;;;;;;;16.41;70.73;100577.13;126319;1099;104159;-78
2021/08/21 02:13:54;;;;;;;13.90;6.97;;;;;;;16.39;69.97;100578.84;126309;1099;104361;-79
2021/08/21 02:16:25;;;;;;;12.07;6.50;;;;;;;16.36;70.64;100570.86;126349;1099;104146;-79
2021/08/21 02:18:56;;;;;;;18.50;7.20;;;;;;;16.35;70.81;100577.05;126279;1099;104220;-78
2021/08/21 02:21:39;;;;;;;14.10;6.80;;;;;;;16.34;70.22;100580.55;126367;1099;104133;-78
2021/08/21 02:24:11;;;;;;;13.10;6.63;;;;;;;16.33;71.10;100582.32;126310;1098;104174;-77
2021/08/21 02:26:43;;;;;;;13.23;6.37;;;;;;;16.32;71.23;100579.66;126310;1099;104237;-79
2021/08/21 02:29:18;;;;;;;13.57;6.53;;;;;;;16.29;70.66;100574.31;126328;1099;104274;-78
2021/08/21 02:31:49;;;;;;;13.47;6.43;;;;;;;16.28;70.82;100584.02;126315;1099;104284;-77
2021/08/21 02:34:20;;;;;;;14.90;6.97;;;;;;;16.27;70.73;100578.70;126328;1099;101960;-78
2021/08/21 02:36:51;;;;;;;18.50;7.30;;;;;;;16.27;71.47;100584.00;126257;1099;104146;-78
2021/08/21 02:39:24;;;;;;;17.07;6.93;;;;;;;16.24;71.17;100581.31;126247;1099;104194;-78
2021/08/21 02:41:55;;;;;;;16.07;6.97;;;;;;;16.21;71.69;100579.50;126364;1099;104165;-78
2021/08/21 02:44:25;;;;;;;13.60;6.87;;;;;;;16.20;71.19;100582.13;126330;1099;104236;-78
2021/08/21 02:46:56;;;;;;;15.47;7.30;;;;;;;16.18;71.72;100582.98;126346;1099;104291;-78
2021/08/21 02:49:27;;;;;;;13.97;7.00;;;;;;;16.14;71.27;100583.83;126283;1099;104263;-78
2021/08/21 02:51:57;;;;;;;14.67;7.33;;;;;;;16.14;71.25;100591.77;126329;1099;104140;-79
2021/08/21 02:54:28;;;;;;;16.27;7.07;;;;;;;16.12;71.36;100592.61;126332;1099;104272;-78
2021/08/21 02:56:59;;;;;;;14.27;6.97;;;;;;;16.08;71.52;100598.70;126327;1099;104137;-78
2021/08/21 02:59:31;;;;;;;14.70;7.27;;;;;;;16.05;71.60;100599.58;126256;1099;104172;-77
2021/08/21 03:02:04;;;;;;;15.70;7.00;;;;;;;16.02;71.59;100594.23;126328;1099;104277;-78
2021/08/21 03:04:37;;;;;;;14.90;7.20;;;;;;;16.00;71.85;100598.59;126332;1099;104140;-78
2021/08/21 03:07:08;;;;;;;14.63;6.70;;;;;;;16.01;72.56;100596.86;126348;1099;104322;-78
2021/08/21 03:09:50;;;;;;;14.03;7.33;;;;;;;15.99;71.77;100602.13;126294;1099;105221;-78
2021/08/21 03:12:24;;;;;;;14.70;6.97;;;;;;;15.96;71.70;100595.02;126351;1099;104136;-77
2021/08/21 03:15:03;;;;;;;13.87;7.37;;;;;;;15.95;72.48;100595.00;126357;1097;104625;-77
2021/08/21 03:17:34;;;;;;;14.33;7.20;;;;;;;15.93;72.97;100600.27;126306;1099;104168;-78
2021/08/21 03:20:06;;;;;;;18.57;7.30;;;;;;;15.93;72.60;100607.33;126218;1099;104264;-78
2021/08/21 03:22:38;;;;;;;12.93;6.70;;;;;;;15.93;71.85;100609.97;126282;1098;104162;-77
2021/08/21 03:25:10;;;;;;;14.47;6.83;;;;;;;15.94;72.47;100603.80;126333;1099;104178;-78
2021/08/21 03:27:41;;;;;;;16.05;7.45;;;;;;;15.95;73.32;100613.52;126265;1099;104188;-77
2021/08/21 03:30:14;;;;;;;15.60;7.73;;;;;;;15.95;72.23;100616.17;126264;1099;104197;-77
2021/08/21 03:32:45;;;;;;;16.30;8.00;;;;;;;15.96;73.29;100612.67;126353;1099;104152;-79
2021/08/21 03:35:16;;;;;;;18.33;8.00;;;;;;;15.96;72.85;100620.61;126292;1099;104140;-78
2021/08/21 03:37:47;;;;;;;17.33;7.97;;;;;;;15.97;72.68;100606.48;126331;1099;104193;-78
2021/08/21 03:40:18;;;;;;;15.30;7.47;;;;;;;15.99;72.65;100615.36;126237;1099;104210;-78
2021/08/21 03:43:03;;;;;;;14.17;7.47;;;;;;;16.02;72.57;100609.20;126248;1099;104293;-78
2021/08/21 03:45:40;;;;;;;16.90;8.03;;;;;;;16.03;72.36;100616.29;126308;1099;104137;-78
2021/08/21 03:48:12;;;;;;;15.57;7.80;;;;;;;16.01;72.68;100621.56;126323;1099;104191;-78
2021/08/21 03:50:44;;;;;;;19.07;8.30;;;;;;;16.01;72.33;100618.03;126319;1099;104185;-77
2021/08/21 03:53:16;;;;;;;17.90;8.37;;;;;;;16.02;72.64;100619.79;126347;1097;104351;-78
2021/08/21 03:56:03;;;;;;;16.47;7.77;;;;;;;16.02;72.67;100622.44;126298;1099;104252;-78
2021/08/21 03:58:37;;;;;;;15.60;7.43;;;;;;;16.02;72.70;100618.05;126355;1099;104236;-77
2021/08/21 04:01:08;;;;;;;13.63;7.47;;;;;;;16.03;73.22;100621.58;126298;1099;104159;-78
2021/08/21 04:03:40;;;;;;;16.67;8.13;;;;;;;16.04;73.06;100623.37;126225;1099;104245;-77
2021/08/21 04:06:12;;;;;;;15.73;7.50;;;;;;;16.05;73.52;100620.75;126340;1099;104143;-77
2021/08/21 04:08:44;;;;;;;15.90;7.60;;;;;;;16.08;73.75;100615.50;126303;1099;104434;-78
2021/08/21 04:11:16;;;;;;;21.30;7.67;;;;;;;16.11;73.14;100619.93;126285;1099;104149;-78
2021/08/21 04:14:00;;;;;;;17.13;7.53;;;;;;;16.14;73.50;100620.89;126330;1099;104152;-78
2021/08/21 04:16:33;;;;;;;14.83;7.23;;;;;;;16.19;73.53;100626.25;126311;1099;104176;-78
2021/08/21 04:19:04;;;;;;;14.97;7.33;;;;;;;16.21;73.66;100627.16;126376;1099;104234;-77
2021/08/21 04:21:40;;;;;;;16.90;7.50;;;;;;;16.24;73.37;100629.84;126265;1099;104313;-78
2021/08/21 04:24:14;;;;;;;16.33;7.33;;;;;;;16.31;72.78;100625.52;126320;1099;104201;-77
2021/08/21 04:26:46;;;;;;;17.27;7.43;;;;;;;16.35;73.43;100630.88;126180;1098;104398;-78
2021/08/21 04:29:17;;;;;;;14.80;7.20;;;;;;;16.40;73.19;100630.95;126218;1099;104215;-77
2021/08/21 04:31:47;;;;;;;14.97;7.60;;;;;;;16.45;73.24;100629.24;126062;1099;104169;-78
2021/08/21 04:34:18;;;;;;;17.20;7.53;;;;;;;16.51;73.61;100631.98;126189;1099;104928;-78
2021/08/21 04:36:49;;;;;;;15.47;7.40;;;;;;;16.59;73.61;100633.85;125443;1099;104293;-77
2021/08/21 04:39:23;;;;;;;14.50;7.40;;;;;;;16.64;73.79;100632.14;126190;1099;104182;-77
2021/08/21 04:41:54;;;;;;;18.20;7.97;;;;;;;16.67;73.76;100637.48;126122;1099;104316;-78
2021/08/21 04:44:27;;;;;;;15.10;7.47;;;;;;;16.72;73.11;100638.45;126225;1099;104315;-76
2021/08/21 04:46:59;;;;;;;18.13;7.97;;;;;;;16.75;73.14;100641.14;126172;1099;104830;-77
2021/08/21 04:49:30;;;;;;;17.00;8.10;;;;;;;16.80;73.36;100644.73;126156;1099;104418;-76
2021/08/21 04:52:01;;;;;;;19.83;8.20;;;;;;;16.82;73.31;100650.05;125364;1099;104265;-77
2021/08/21 04:54:31;;;;;;;19.57;7.90;;;;;;;16.85;73.88;100650.97;126149;1099;104329;-78
2021/08/21 04:57:02;;;;;;;15.20;6.87;;;;;;;16.90;73.28;100656.36;126139;1099;104245;-77
2021/08/21 04:59:40;;;;;;;16.13;7.60;;;;;;;16.95;73.53;100657.30;126193;1099;104302;-78
2021/08/21 05:02:12;;;;;;;16.20;7.20;;;;;;;17.01;73.07;100660.02;126306;1099;104238;-77
2021/08/21 05:04:43;;;;;;;15.53;7.50;;;;;;;17.08;73.78;100666.30;126235;1099;105393;-76
2021/08/21 05:07:14;;;;;;;17.10;7.90;;;;;;;17.11;73.73;100662.78;126324;1098;104153;-77
2021/08/21 05:09:48;;;;;;;16.97;7.37;;;;;;;17.12;73.46;100661.92;126290;1099;104220;-77
2021/08/21 05:12:23;;;;;;;17.43;7.43;;;;;;;17.16;73.81;100661.97;126189;1099;104392;-76
2021/08/21 05:15:20;;;;;;;14.30;7.90;;;;;;;17.24;73.17;100667.36;126238;1098;104150;-76
2021/08/21 05:18:09;;;;;;;17.10;7.87;;;;;;;17.29;73.54;100664.77;126306;1099;104201;-77
2021/08/21 05:20:51;;;;;;;18.77;8.47;;;;;;;17.33;73.25;100667.46;126355;1099;104245;-76
2021/08/21 05:23:23;;;;;;;17.20;7.57;;;;;;;17.41;73.55;100672.85;126170;1099;105665;-76
2021/08/21 05:25:54;;;;;;;13.93;7.13;;;;;;;17.48;72.85;100669.36;126209;1099;104303;-78
2021/08/21 05:28:25;;;;;;;18.80;7.47;;;;;;;17.56;73.22;100669.44;126283;1099;104171;-75
2021/08/21 05:30:56;;;;;;;16.57;7.50;;;;;;;17.64;73.36;100675.73;126202;1099;104171;-76
2021/08/21 05:33:27;;;;;;;16.03;6.93;;;;;;;17.72;73.11;100676.69;126247;1099;104163;-78
2021/08/21 05:35:58;;;;;;;16.43;7.67;;;;;;;17.79;73.12;100667.92;126181;1099;104137;-76
2021/08/21 05:38:29;;;;;;;19.67;7.07;;;;;;;17.88;72.89;100667.13;126178;1099;104127;-78
2021/08/21 05:41:02;;;;;;;19.43;7.70;;;;;;;17.93;72.79;100670.70;126186;1099;104141;-76
2021/08/21 05:43:33;;;;;;;19.12;7.62;;;;;;;18.03;72.92;100661.06;126178;1099;104437;-75
2021/08/21 05:46:04;;;;;;;18.17;7.63;;;;;;;18.13;73.16;100662.01;126167;1099;104150;-76
2021/08/21 05:48:35;;;;;;;19.50;7.67;;;;;;;18.23;72.86;100666.52;126230;1099;104297;-75
2021/08/21 05:51:06;;;;;;;18.67;6.90;;;;;;;18.33;72.43;100665.69;126119;1099;104326;-76
2021/08/21 05:53:37;;;;;;;18.87;7.30;;;;;;;18.43;72.33;100666.66;126200;1099;104207;-78
2021/08/21 05:56:07;;;;;;;19.50;7.30;;;;;;;18.53;72.61;100662.27;126062;1099;104407;-76
2021/08/21 05:58:41;;;;;;;18.67;7.60;;;;;;;18.63;72.80;100668.52;126060;1099;104140;-76
2021/08/21 06:01:11;;;;;;;22.42;7.15;;;;;;;18.73;72.70;100670.36;126078;1099;104159;-76
2021/08/21 06:03:46;;;;;;;17.87;7.87;;;;;;;18.84;72.47;100662.44;125024;1099;104156;-77
2021/08/21 06:06:20;;;;;;;20.87;7.93;;;;;;;18.96;72.30;100673.12;125188;1099;104178;-76
2021/08/21 06:08:58;;;;;;;25.40;8.73;;;;;;;19.06;71.86;100676.73;125130;1102;104779;-76
2021/08/21 06:11:31;;;;;;;26.05;8.90;;;;;;;19.16;71.94;100669.66;125293;1102;104300;-77
2021/08/21 06:14:05;;;;;;;21.47;8.00;;;;;;;19.22;71.56;100669.68;125295;1100;104187;-77
2021/08/21 06:16:40;;;;;;;21.80;8.43;;;;;;;19.28;71.66;100675.02;125347;1102;104297;-77
2021/08/21 06:19:13;;;;;;;18.80;7.80;;;;;;;19.36;71.94;100670.59;126139;1099;104331;-80
2021/08/21 06:21:44;;;;;;;18.70;7.20;;;;;;;19.44;71.21;100677.72;125358;1099;104296;-78
2021/08/21 06:24:16;;;;;;;17.03;7.30;;;;;;;19.52;71.18;100674.16;125693;1099;104258;-80
2021/08/21 06:26:50;;;;;;;17.63;7.97;;;;;;;19.61;71.63;100665.32;125259;1099;104174;-78
2021/08/21 06:29:22;;;;;;;17.67;7.70;;;;;;;19.67;70.88;100673.31;126241;1099;105190;-80
2021/08/21 06:31:55;;;;;;;16.97;7.47;;;;;;;19.72;70.83;100676.86;126178;1099;104169;-76
2021/08/21 06:34:27;;;;;;;17.50;7.70;;;;;;;19.79;70.07;100672.48;126138;1099;104229;-77
2021/08/21 06:37:01;;;;;;;16.97;7.30;;;;;;;19.86;69.37;100673.36;126308;1099;104238;-76
2021/08/21 06:39:34;;;;;;;15.50;7.97;;;;;;;19.95;70.15;100678.69;126276;1097;104145;-76
2021/08/21 06:42:06;;;;;;;15.27;7.50;;;;;;;20.03;68.79;100674.24;126173;1099;104140;-76
2021/08/21 06:44:40;;;;;;;11.77;6.40;;;;;;;20.16;69.13;100667.13;126014;1099;104223;-77
2021/08/21 06:47:12;;;;;;;12.60;6.90;;;;;;;20.28;69.68;100663.56;126199;1099;104191;-77
2021/08/21 06:49:44;;;;;;;17.30;7.33;;;;;;;20.41;68.86;100664.42;125970;1099;104701;-76
2021/08/21 06:52:18;;;;;;;17.13;7.83;;;;;;;20.54;68.03;100671.52;126153;1099;104216;-76
2021/08/21 06:54:50;;;;;;;20.60;8.23;;;;;;;20.70;68.58;100674.17;126069;1099;104169;-78
2021/08/21 06:57:24;;;;;;;15.13;7.03;;;;;;;20.80;69.01;100674.13;126255;1099;104149;-78
2021/08/21 06:59:58;;;;;;;24.27;8.05;;;;;;;20.95;67.60;100672.30;126051;1099;104194;-77
2021/08/21 07:02:30;;;;;;;16.40;7.50;;;;;;;21.07;67.31;100674.03;126207;1099;104268;-77
2021/08/21 07:05:07;;;;;;;13.73;7.07;;;;;;;21.24;67.06;100673.91;126131;1099;104631;-77
2021/08/21 07:07:42;;;;;;;21.30;8.23;;;;;;;21.38;67.53;100680.09;126248;1098;104197;-79
2021/08/21 07:10:15;;;;;;;18.67;7.97;;;;;;;21.51;66.85;100663.11;126260;1098;104826;-80
2021/08/21 07:12:51;;;;;;;17.52;7.35;;;;;;;21.70;66.96;100681.67;125310;1099;104206;-78
2021/08/21 07:15:27;;;;;;;17.60;7.67;;;;;;;21.84;66.38;100682.45;126214;1099;104280;-76
2021/08/21 07:17:58;;;;;;;19.33;7.47;;;;;;;22.02;65.92;100678.75;126179;1097;104201;-76
2021/08/21 07:20:30;;;;;;;20.05;8.03;;;;;;;22.22;65.71;100678.58;126276;1099;104568;-77
2021/08/21 07:23:01;;;;;;;14.80;6.93;;;;;;;22.39;65.51;100677.53;126053;1099;104187;-78
2021/08/21 07:25:34;;;;;;;20.63;7.73;;;;;;;22.56;65.44;100675.59;126277;1099;104155;-76
2021/08/21 07:28:05;;;;;;;14.03;7.20;;;;;;;22.75;65.50;100678.94;126149;1099;104149;-79
2021/08/21 07:30:37;;;;;;;15.63;7.17;;;;;;;22.92;65.15;100678.73;126271;1099;101929;-80
2021/08/21 07:33:11;;;;;;;16.05;7.37;;;;;;;23.09;64.20;100680.33;126271;1098;104185;-80
2021/08/21 07:35:45;;;;;;;14.67;6.90;;;;;;;23.27;64.24;100679.21;126174;1098;104194;-79
2021/08/21 07:38:17;;;;;;;12.13;6.25;;;;;;;23.45;63.67;100681.63;126187;1099;104136;-78
2021/08/21 07:40:49;;;;;;;11.40;6.33;;;;;;;23.63;62.48;100684.93;126184;1099;104137;-77
2021/08/21 07:43:22;;;;;;;14.63;6.43;;;;;;;23.79;61.12;100685.56;126350;1099;104306;-78
2021/08/21 07:45:55;;;;;;;11.70;6.30;;;;;;;23.93;60.41;100691.61;126138;1099;104152;-77
2021/08/21 07:48:27;;;;;;;12.80;6.17;;;;;;;24.08;61.59;100682.44;126117;1099;104185;-78
2021/08/21 07:51:02;;;;;;;13.45;6.37;;;;;;;24.21;60.44;100691.14;126288;1099;104153;-77
2021/08/21 07:53:34;;;;;;;14.40;7.20;;;;;;;24.38;60.62;100694.40;126258;1099;104293;-78
2021/08/21 07:56:09;;;;;;;13.47;6.77;;;;;;;24.47;59.29;100696.04;126233;1099;104136;-77
2021/08/21 07:58:45;;;;;;;11.55;5.90;;;;;;;24.62;58.17;100694.00;126205;1099;104281;-79
2021/08/21 08:01:23;;;;;;;12.13;6.40;;;;;;;24.82;58.13;100693.61;126216;1099;104147;-77
2021/08/21 08:03:55;;;;;;;12.50;6.17;;;;;;;24.90;57.42;100697.02;126231;1099;104162;-77
2021/08/21 08:06:28;;;;;;;13.77;6.47;;;;;;;25.01;57.88;100695.02;126252;1099;104146;-78
2021/08/21 08:09:02;;;;;;;11.80;6.63;;;;;;;25.07;57.32;100689.52;126133;1099;104207;-80
2021/08/21 08:11:33;;;;;;;;;;;;;;;25.12;54.06;100689.42;126163;1099;104219;-78
2021/08/21 08:14:08;;;;;;;13.10;6.20;;;;;;;25.17;55.86;100692.01;126254;1099;104361;-78
2021/08/21 08:16:39;;;;;;;12.68;6.58;;;;;;;25.33;55.65;100697.95;126145;1099;104242;-78
2021/08/21 08:19:10;;;;;;;11.55;6.40;;;;;;;25.40;55.13;100699.56;126238;1099;104235;-77
2021/08/21 08:21:44;;;;;;;14.40;6.97;;;;;;;25.37;54.68;100692.48;126249;1099;104188;-78
2021/08/21 08:24:23;;;;;;;14.30;6.47;;;;;;;25.41;55.36;100687.91;126185;1099;104149;-78
2021/08/21 08:26:59;;;;;;;10.27;6.23;;;;;;;25.48;54.77;100695.80;126275;1099;104150;-80
2021/08/21 08:29:34;;;;;;;21.73;6.43;;;;;;;25.60;53.92;100693.73;126204;1099;104644;-78
2021/08/21 08:32:08;;;;;;;11.10;5.60;;;;;;;25.61;52.81;100692.83;126168;1099;104233;-79
2021/08/21 08:34:41;;;;;;;13.50;5.90;;;;;;;25.68;53.33;100686.40;126224;1099;104210;-79
2021/08/21 08:37:14;;;;;;;14.17;6.57;;;;;;;25.75;52.21;100693.37;126254;1099;104188;-79
2021/08/21 08:39:49;;;;;;;14.97;5.97;;;;;;;25.76;52.38;100687.09;126274;1099;104175;-79
2021/08/21 08:42:23;;;;;;;13.40;6.43;;;;;;;25.80;51.72;100686.10;126264;1099;104143;-78
2021/08/21 08:44:55;;;;;;;11.97;6.20;;;;;;;25.87;52.55;100699.36;126268;1098;104251;-78
2021/08/21 08:47:28;;;;;;;12.40;6.15;;;;;;;25.87;51.89;100696.67;126100;1099;104270;-77
2021/08/21 08:50:04;;;;;;;9.63;5.60;;;;;;;25.84;51.25;100690.46;126236;1099;104319;-77
2021/08/21 08:52:43;;;;;;;10.60;5.40;;;;;;;25.90;51.21;100692.13;126299;1099;104220;-78
2021/08/21 08:55:18;;;;;;;11.00;5.43;;;;;;;25.99;51.11;100691.03;126225;1099;104165;-79
2021/08/21 08:57:53;;;;;;;10.37;5.63;;;;;;;26.04;50.44;100691.81;126121;1099;104162;-77
2021/08/21 09:00:38;;;;;;;9.97;5.60;;;;;;;26.09;51.00;100691.70;126141;1099;104277;-78
2021/08/21 09:03:20;;;;;;;10.68;5.67;;;;;;;26.07;50.68;100693.52;126190;1099;104175;-76
2021/08/21 09:05:52;;;;;;;11.30;5.47;;;;;;;26.01;49.37;100682.02;126141;1099;104297;-77
2021/08/21 09:08:31;;;;;;;8.47;5.17;;;;;;;25.98;49.64;100683.91;126148;1099;104191;-79
2021/08/21 09:11:19;;;;;;;8.50;4.93;;;;;;;26.05;49.45;100682.80;126219;1099;104140;-77
2021/08/21 09:13:50;;;;;;;7.30;5.00;;;;;;;26.11;48.81;100692.53;126274;1098;104232;-78
2021/08/21 09:16:29;;;;;;;11.23;5.27;;;;;;;26.09;48.17;100686.32;126080;1099;104161;-76
2021/08/21 09:19:09;;;;;;;9.40;5.13;;;;;;;26.10;47.52;100685.38;126061;1099;104200;-78
2021/08/21 09:22:00;;;;;;;9.23;5.40;;;;;;;26.14;47.20;100676.32;126164;1099;104354;-76
2021/08/21 09:24:32;;;;;;;9.07;4.70;;;;;;;26.15;47.29;100676.28;126228;1099;104159;-76
2021/08/21 09:27:20;;;;;;;8.43;4.83;;;;;;;26.22;47.13;100676.12;126187;1099;104168;-77
2021/08/21 09:30:10;;;;;;;9.67;4.80;;;;;;;26.28;47.01;100676.83;126174;1099;104531;-78
2021/08/21 09:32:41;;;;;;;13.27;5.37;;;;;;;26.40;47.84;100667.56;126113;1099;104175;-76
2021/08/21 09:35:14;;;;;;;12.33;5.70;;;;;;;26.45;45.94;100668.30;126168;1099;104184;-76
2021/08/21 09:37:51;;;;;;;12.03;5.15;;;;;;;26.44;46.76;100671.91;126154;1099;104627;-76
2021/08/21 09:40:31;;;;;;;13.33;5.60;;;;;;;26.44;46.31;100668.34;126217;1099;104296;-77
2021/08/21 09:43:05;;;;;;;9.60;5.27;;;;;;;26.50;46.34;100665.48;126006;1099;104319;-76
2021/08/21 09:45:39;;;;;;;9.75;5.20;;;;;;;26.57;46.73;100672.48;126045;1099;104341;-78
2021/08/21 09:48:12;;;;;;;9.10;5.27;;;;;;;26.57;46.58;100666.19;125570;1099;104386;-77
2021/08/21 09:51:13;;;;;;;12.57;5.87;;;;;;;26.57;46.45;100667.09;125276;1099;104146;-76
2021/08/21 09:54:18;;;;;;;9.87;5.07;;;;;;;26.61;45.77;100673.27;125237;1102;104172;-77
2021/08/21 09:56:56;;;;;;;9.50;4.87;;;;;;;26.66;45.41;100682.11;125272;1102;104207;-75
2021/08/21 09:59:38;;;;;;;8.77;5.03;;;;;;;26.64;44.89;100679.43;125340;1099;104653;-75
2021/08/21 10:02:10;;;;;;;9.40;5.30;;;;;;;26.69;44.64;100676.64;126110;1099;104328;-76
2021/08/21 10:04:44;;;;;;;10.00;5.08;;;;;;;26.74;44.34;100674.73;126175;1099;104197;-76
2021/08/21 10:07:18;;;;;;;10.82;5.03;;;;;;;26.73;43.76;100681.02;125268;1099;104312;-76
2021/08/21 10:09:53;;;;;;;9.87;5.30;;;;;;;26.70;43.83;100679.30;125106;1099;107104;-75
2021/08/21 10:12:24;;;;;;;9.20;5.03;;;;;;;26.70;43.82;100668.53;125162;1099;104153;-75
2021/08/21 10:14:55;;;;;;;13.63;5.83;;;;;;;26.73;43.77;100678.34;125486;1099;104168;-76
2021/08/21 10:17:31;;;;;;;6.90;4.80;;;;;;;26.77;43.35;100671.05;126142;1099;104179;-76
2021/08/21 10:20:05;;;;;;;8.77;4.63;;;;;;;26.78;42.82;100668.31;126168;1099;118764;-75
2021/08/21 10:22:39;;;;;;;9.40;4.60;;;;;;;26.81;43.01;100673.60;126004;1099;104322;-76
2021/08/21 10:25:12;;;;;;;8.47;4.70;;;;;;;26.88;43.15;100666.22;125941;1099;104194;-75
2021/08/21 10:27:53;;;;;;;9.00;4.70;;;;;;;26.94;43.50;100657.09;126141;1099;104249;-76
2021/08/21 10:30:39;;;;;;;7.73;4.60;;;;;;;27.03;42.76;100662.20;126168;1099;104191;-76
2021/08/21 10:33:11;;;;;;;9.80;5.07;;;;;;;27.15;43.01;100664.53;126062;1099;104159;-75
2021/08/21 10:35:49;;;;;;;9.57;4.83;;;;;;;27.19;42.19;100671.59;126061;1099;104166;-75
2021/08/21 10:38:40;;;;;;;9.60;4.80;;;;;;;27.19;42.02;100665.30;126068;1099;104242;-75
2021/08/21 10:41:25;;;;;;;;;;;;;;;27.22;42.13;100668.81;126265;1099;110887;-75
2021/08/21 10:43:58;;;;;;;9.43;5.10;;;;;;;27.21;41.49;100668.86;126113;1099;105641;-75
2021/08/21 10:46:54;;;;;;;8.37;4.67;;;;;;;27.18;41.44;100672.52;126262;1099;104245;-75
2021/08/21 10:49:44;;;;;;;9.43;4.60;;;;;;;27.20;41.24;100664.39;126101;1099;104453;-76
2021/08/21 10:52:39;;;;;;;10.07;4.63;;;;;;;27.22;40.89;100671.50;126228;1099;104207;-77
2021/08/21 10:55:25;;;;;;;8.78;4.70;;;;;;;27.24;40.06;100668.77;126177;1098;104172;-77
2021/08/21 10:58:03;;;;;;;9.60;5.07;;;;;;;27.22;40.23;100673.29;126184;1099;104140;-75
2021/08/21 11:01:00;;;;;;;9.97;4.93;;;;;;;27.26;40.71;100670.45;126179;1099;104669;-75
2021/08/21 11:03:46;;;;;;;8.93;4.43;;;;;;;27.31;40.27;100670.34;126197;1097;104207;-76
2021/08/21 11:06:32;;;;;;;8.47;4.73;;;;;;;27.36;39.94;100667.52;126160;1099;104161;-76
2021/08/21 11:09:08;;;;;;;8.80;4.73;;;;;;;27.40;40.26;100680.84;126100;1099;104258;-76
2021/08/21 11:11:44;;;;;;;8.60;4.97;;;;;;;27.43;40.55;100666.41;126166;1099;104168;-77
2021/08/21 11:14:35;;;;;;;9.20;5.23;;;;;;;27.47;40.13;100654.58;126187;1099;104181;-77
2021/08/21 11:17:11;;;;;;;10.50;5.37;;;;;;;27.52;40.18;100655.33;126143;1099;104315;-79
2021/08/21 11:19:47;;;;;;;9.57;5.50;;;;;;;27.50;39.99;100665.25;126199;1099;104158;-79
2021/08/21 11:22:27;;;;;;;10.67;5.47;;;;;;;27.55;40.30;100655.23;126134;1099;104197;-78
2021/08/21 11:25:34;;;;;;;8.10;5.00;;;;;;;27.51;40.14;100661.64;126171;1099;104251;-79
2021/08/21 11:28:10;;;;;;;10.73;4.70;;;;;;;27.35;39.83;100660.38;126255;1099;104233;-77
2021/08/21 11:30:42;;;;;;;10.80;4.90;;;;;;;27.37;39.73;100663.90;126008;1099;104345;-78
2021/08/21 11:33:18;;;;;;;9.80;5.03;;;;;;;27.45;40.24;100664.53;126253;1099;104248;-78
2021/08/21 11:35:52;;;;;;;8.83;5.30;;;;;;;27.47;39.38;100657.27;126186;1099;104293;-78
2021/08/21 11:38:36;;;;;;;8.90;5.07;;;;;;;27.47;39.67;100653.70;126210;1099;104168;-78